LEJR Airport Information

Runway Information
Runway 02 Length 7546 ft width 148 ft
Elevation 68 ft Threshold ft Heading 21
Runway 20 Length 7546 ft Width 148 ft
Elevation 93 ft Threshold ft Heading 201
Airport Frequencies
Type APP Name APP Frequency 128.5 MHZ
Type GND Name GND Frequency 121.6 MHZ
Type TWR Name TWR Frequency 118.55 MHZ
Airport Navaids
Type NDB Name Jerez Frequency 433 KHZ
Type VOR-DME Name Jerez Frequency 113000 KHZ
Airport Weather Information & NOTAM
ADDS - METARS form results

(1129 UTC 30 June 2022)
Data provider http://aviationweather.gov/metar/data/
 
METAR text: LEJR 301100Z 23007KT 200V290 CAVOK 27/09 Q1014
Conditions at: LEJR (JEREZ (CIV/MIL) , ES) observed 1100 UTC 30 June 2022
Temperature: 27.0°C (81°F)
Dewpoint: 9.0°C (48°F) [RH = 32%]
Pressure (altimeter): 29.94 inches Hg (1014.0 mb)
Winds: from the SW (230 degrees) at 8 MPH (7 knots; 3.6 m/s)
Visibility: 6 or more miles (10+ km)
Ceiling: ceiling and visibility are OK
Clouds: unknown
Weather: no significant weather observed at this time

METAR text: LEJR 301030Z 25007KT 170V290 CAVOK 25/12 Q1014
Conditions at: LEJR (JEREZ (CIV/MIL) , ES) observed 1030 UTC 30 June 2022
Temperature: 25.0°C (77°F)
Dewpoint: 12.0°C (54°F) [RH = 44%]
Pressure (altimeter): 29.94 inches Hg (1014.0 mb)
Winds: from the WSW (250 degrees) at 8 MPH (7 knots; 3.6 m/s)
Visibility: 6 or more miles (10+ km)
Ceiling: ceiling and visibility are OK
Clouds: unknown
Weather: no significant weather observed at this time

Forecast for: LEJR (JEREZ (CIV/MIL) , ES)
Text: TAF LEJR 300800Z 3009/0109 VRB02KT CAVOK TX30/3014Z TN14/0105Z
Forecast period: 0900 to 1000 UTC 30 June 2022
Forecast type: FROM: standard forecast or significant change
Winds: variable direction winds at 2 MPH (2 knots; 1.0 m/s)
Visibility: 6 or more miles (10+ km)
Ceiling: unknown
Clouds: missing
Weather: no significant weather forecast for this period
Text: BECMG 3010/3013 26010KT
Forecast period: 1000 to 1900 UTC 30 June 2022
Forecast type: BECOMING: Conditions expected to become as follows by 1300 UTC 30 June 2022
Winds: from the W (260 degrees) at 12 MPH (10 knots; 5.1 m/s)
Visibility: 6 or more miles (10+ km)
Ceiling: unknown
Clouds: missing
Weather: no significant weather forecast for this period
Text: BECMG 3019/3021 17005KT
Forecast period: 1900 UTC 30 June 2022 to 0900 UTC 01 July 2022
Forecast type: BECOMING: Conditions expected to become as follows by 2100 UTC 30 June 2022
Winds: from the S (170 degrees) at 6 MPH (5 knots; 2.6 m/s)
Visibility: 6 or more miles (10+ km)
Ceiling: unknown
Clouds: missing
Weather: no significant weather forecast for this period